Terminal Aerodrome Forecast
Issued by NWS Wichita, KS

Home | Current Version | Previous Version | Graphics & Text | Print | Product List | Glossary On
Versions: 1 2 3 4 5 6 7 8 9 10 11 12 13 14 15 16 17
000
FTUS43 KICT 291728
TAFICT
TAF
KICT 291728Z 2918/3018 02010KT P6SM SCT025 BKN040
      TEMPO 2918/2921 BKN025
     FM300200 VRB05KT P6SM BKN030
     FM301000 01006KT 4SM BR BKN015
     FM301600 02010KT P6SM SCT015 BKN030=

USA.gov is the U.S. government's official web portal to all federal, state and local government web resources and services.